ASA420 KSEA-KDEN
Flight info
| Callsign | ASA420 |
|---|---|
| Flight time | 2h 15m |
| Altitude | 32000 |
| Route | SUMMA2 BKE DNJ BYI IKUCI OCS RAMMS8 |
| Aircraft | B738/M-V/N |
Departure
| Time | 2026-05-05 01:54 |
|---|---|
| Airport | Seattle–Tacoma International Airport (KSEA) |
Arrival
| Time | 2026-05-05 04:09 |
|---|---|
| Airport | Denver International Airport (KDEN) |
| Time | Latitude | Longitude | Altitude | Speed | Heading |
|---|---|---|---|---|---|
| 2026-05-05 01:39 | 47.44838 | -122.30355 | 395 ft | 0 kts | 40° |
| 2026-05-05 01:45 | 47.44836 | -122.30357 | 395 ft | 2 kts | 40° |
| 2026-05-05 01:45 | 47.44819 | -122.30379 | 394 ft | 1 kts | 40° |
| 2026-05-05 01:45 | 47.44805 | -122.30394 | 394 ft | 1 kts | 32° |
| 2026-05-05 01:45 | 47.44795 | -122.30401 | 393 ft | 1 kts | 14° |
| 2026-05-05 01:46 | 47.44787 | -122.30403 | 393 ft | 1 kts | 358° |
| 2026-05-05 01:46 | 47.44778 | -122.30401 | 393 ft | 1 kts | 342° |
| 2026-05-05 01:46 | 47.44773 | -122.30399 | 393 ft | 0 kts | 333° |
| 2026-05-05 01:48 | 47.44774 | -122.30399 | 393 ft | 2 kts | 332° |
| 2026-05-05 01:48 | 47.44786 | -122.30466 | 393 ft | 15 kts | 271° |
| 2026-05-05 01:49 | 47.44816 | -122.30616 | 395 ft | 13 kts | 338° |
| 2026-05-05 01:49 | 47.44901 | -122.30628 | 397 ft | 11 kts | 1° |
| 2026-05-05 01:49 | 47.44976 | -122.30624 | 400 ft | 10 kts | 1° |
| 2026-05-05 01:49 | 47.45033 | -122.30623 | 403 ft | 5 kts | 1° |
| 2026-05-05 01:50 | 47.45058 | -122.30623 | 405 ft | 4 kts | 0° |
| 2026-05-05 01:50 | 47.45160 | -122.30624 | 410 ft | 16 kts | 358° |
| 2026-05-05 01:50 | 47.45266 | -122.30624 | 414 ft | 14 kts | 2° |
| 2026-05-05 01:50 | 47.45365 | -122.30621 | 419 ft | 16 kts | 1° |
| 2026-05-05 01:51 | 47.45489 | -122.30621 | 424 ft | 18 kts | 360° |
| 2026-05-05 01:51 | 47.45639 | -122.30621 | 430 ft | 26 kts | 0° |
| 2026-05-05 01:51 | 47.45814 | -122.30618 | 432 ft | 23 kts | 1° |
| 2026-05-05 01:51 | 47.45975 | -122.30616 | 433 ft | 22 kts | 0° |
| 2026-05-05 01:52 | 47.46135 | -122.30617 | 427 ft | 23 kts | 359° |
| 2026-05-05 01:52 | 47.46272 | -122.30633 | 417 ft | 4 kts | 339° |
| 2026-05-05 01:52 | 47.46361 | -122.30638 | 410 ft | 8 kts | 321° |
| 2026-05-05 01:52 | 47.46363 | -122.30641 | 410 ft | 0 kts | 315° |
| 2026-05-05 01:53 | 47.46379 | -122.30676 | 407 ft | 18 kts | 287° |
| 2026-05-05 01:53 | 47.46273 | -122.30778 | 409 ft | 31 kts | 180° |
| 2026-05-05 01:53 | 47.45795 | -122.30782 | 428 ft | 104 kts | 181° |
| 2026-05-05 01:53 | 47.44825 | -122.30791 | 396 ft | 168 kts | 181° |
| 2026-05-05 01:54 | 47.43534 | -122.30796 | 533 ft | 195 kts | 182° |
| 2026-05-05 01:54 | 47.42122 | -122.30761 | 807 ft | 203 kts | 182° |
| 2026-05-05 01:54 | 47.40625 | -122.30788 | 1212 ft | 220 kts | 182° |
| 2026-05-05 01:54 | 47.39060 | -122.30817 | 1609 ft | 226 kts | 182° |
| 2026-05-05 01:55 | 47.37361 | -122.30856 | 2031 ft | 258 kts | 182° |
| 2026-05-05 01:55 | 47.35509 | -122.30904 | 2467 ft | 269 kts | 182° |
| 2026-05-05 01:55 | 47.33649 | -122.30962 | 2859 ft | 268 kts | 182° |
| 2026-05-05 01:55 | 47.31784 | -122.31021 | 3255 ft | 268 kts | 182° |
| 2026-05-05 01:56 | 47.29899 | -122.31092 | 3671 ft | 268 kts | 182° |
| 2026-05-05 01:56 | 47.28030 | -122.31161 | 4082 ft | 273 kts | 182° |
| 2026-05-05 01:56 | 47.26128 | -122.30971 | 4503 ft | 275 kts | 161° |
| 2026-05-05 01:56 | 47.24367 | -122.29803 | 4964 ft | 278 kts | 153° |
| 2026-05-05 01:57 | 47.22615 | -122.28533 | 5379 ft | 279 kts | 153° |
| 2026-05-05 01:57 | 47.20873 | -122.27292 | 5786 ft | 282 kts | 156° |
| 2026-05-05 01:57 | 47.19019 | -122.26211 | 6220 ft | 286 kts | 158° |
| 2026-05-05 01:57 | 47.17118 | -122.25133 | 6653 ft | 289 kts | 158° |
| 2026-05-05 01:58 | 47.15240 | -122.24071 | 7077 ft | 292 kts | 158° |
| 2026-05-05 01:58 | 47.13297 | -122.23074 | 7511 ft | 295 kts | 162° |
| 2026-05-05 01:58 | 47.11335 | -122.22199 | 7939 ft | 297 kts | 162° |
| 2026-05-05 01:58 | 47.09327 | -122.21314 | 8403 ft | 299 kts | 162° |
| 2026-05-05 01:59 | 47.07315 | -122.20428 | 8904 ft | 301 kts | 162° |
| 2026-05-05 01:59 | 47.05306 | -122.19553 | 9399 ft | 305 kts | 162° |
| 2026-05-05 01:59 | 47.03235 | -122.18660 | 9894 ft | 309 kts | 162° |
| 2026-05-05 01:59 | 47.01160 | -122.17764 | 10390 ft | 311 kts | 162° |
| 2026-05-05 02:00 | 46.99099 | -122.16876 | 10893 ft | 314 kts | 162° |
| 2026-05-05 02:00 | 46.96973 | -122.15962 | 11432 ft | 326 kts | 162° |
| 2026-05-05 02:00 | 46.94714 | -122.14990 | 11983 ft | 342 kts | 162° |
| 2026-05-05 02:00 | 46.92435 | -122.14009 | 12510 ft | 357 kts | 162° |
| 2026-05-05 02:01 | 46.89969 | -122.12940 | 13041 ft | 372 kts | 162° |
| 2026-05-05 02:01 | 46.87431 | -122.11832 | 13570 ft | 386 kts | 162° |
| 2026-05-05 02:01 | 46.84787 | -122.10678 | 14092 ft | 400 kts | 162° |
| 2026-05-05 02:01 | 46.82029 | -122.09471 | 14631 ft | 413 kts | 162° |
| 2026-05-05 02:02 | 46.79476 | -122.08350 | 15098 ft | 425 kts | 162° |
| 2026-05-05 02:02 | 46.76413 | -122.07005 | 15643 ft | 438 kts | 162° |
| 2026-05-05 02:02 | 46.73449 | -122.05700 | 16142 ft | 449 kts | 161° |
| 2026-05-05 02:02 | 46.70430 | -122.04292 | 16621 ft | 454 kts | 156° |
| 2026-05-05 02:03 | 46.67694 | -122.02047 | 17134 ft | 450 kts | 141° |
| 2026-05-05 02:03 | 46.65393 | -121.98953 | 17630 ft | 449 kts | 129° |
| 2026-05-05 02:03 | 46.63289 | -121.95535 | 18145 ft | 452 kts | 124° |
| 2026-05-05 02:03 | 46.61368 | -121.91809 | 18675 ft | 455 kts | 124° |
| 2026-05-05 02:04 | 46.59465 | -121.88133 | 19175 ft | 457 kts | 123° |
| 2026-05-05 02:04 | 46.57555 | -121.84453 | 19671 ft | 461 kts | 123° |
| 2026-05-05 02:04 | 46.55600 | -121.80698 | 20172 ft | 465 kts | 123° |
| 2026-05-05 02:04 | 46.53632 | -121.76941 | 20684 ft | 468 kts | 123° |
| 2026-05-05 02:05 | 46.51653 | -121.73167 | 21183 ft | 470 kts | 123° |
| 2026-05-05 02:05 | 46.49638 | -121.69331 | 21688 ft | 474 kts | 123° |
| 2026-05-05 02:05 | 46.47615 | -121.65514 | 22194 ft | 477 kts | 123° |
| 2026-05-05 02:05 | 46.45636 | -121.61601 | 22688 ft | 478 kts | 118° |
| 2026-05-05 02:06 | 46.43782 | -121.57581 | 23201 ft | 482 kts | 119° |
| 2026-05-05 02:06 | 46.41910 | -121.53516 | 23720 ft | 485 kts | 119° |
| 2026-05-05 02:06 | 46.40071 | -121.49543 | 24227 ft | 488 kts | 119° |
| 2026-05-05 02:06 | 46.38171 | -121.45446 | 24747 ft | 492 kts | 119° |
| 2026-05-05 02:07 | 46.36249 | -121.41247 | 25265 ft | 494 kts | 118° |
| 2026-05-05 02:07 | 46.34364 | -121.37042 | 25774 ft | 498 kts | 118° |
| 2026-05-05 02:07 | 46.32469 | -121.32830 | 26283 ft | 500 kts | 118° |
| 2026-05-05 02:07 | 46.30565 | -121.28600 | 26795 ft | 502 kts | 118° |
| 2026-05-05 02:08 | 46.28641 | -121.24350 | 27308 ft | 503 kts | 118° |
| 2026-05-05 02:08 | 46.26731 | -121.20142 | 27814 ft | 503 kts | 118° |
| 2026-05-05 02:08 | 46.24799 | -121.15902 | 28329 ft | 499 kts | 118° |
| 2026-05-05 02:08 | 46.22885 | -121.11748 | 28850 ft | 496 kts | 118° |
| 2026-05-05 02:09 | 46.20974 | -121.07627 | 29363 ft | 494 kts | 118° |
| 2026-05-05 02:09 | 46.19041 | -121.03468 | 29888 ft | 493 kts | 118° |
| 2026-05-05 02:09 | 46.17223 | -120.99271 | 30401 ft | 490 kts | 116° |
| 2026-05-05 02:09 | 46.15394 | -120.95098 | 30931 ft | 488 kts | 116° |
| 2026-05-05 02:10 | 46.13593 | -120.91007 | 31443 ft | 486 kts | 116° |
| 2026-05-05 02:10 | 46.11763 | -120.86862 | 31967 ft | 483 kts | 116° |
| 2026-05-05 02:10 | 46.09940 | -120.82764 | 32490 ft | 480 kts | 116° |
| 2026-05-05 02:10 | 46.08106 | -120.78692 | 32977 ft | 478 kts | 116° |
| 2026-05-05 02:11 | 46.04457 | -120.70581 | 33016 ft | 482 kts | 116° |
| 2026-05-05 02:11 | 46.00792 | -120.62427 | 33021 ft | 480 kts | 116° |
| 2026-05-05 02:12 | 45.95483 | -120.50141 | 33003 ft | 478 kts | 114° |
| 2026-05-05 02:13 | 45.92140 | -120.42123 | 32977 ft | 478 kts | 114° |
| 2026-05-05 02:13 | 45.88679 | -120.33818 | 32936 ft | 479 kts | 114° |
| 2026-05-05 02:14 | 45.85292 | -120.25710 | 32920 ft | 481 kts | 114° |
| 2026-05-05 02:14 | 45.82035 | -120.17291 | 32910 ft | 477 kts | 111° |
| 2026-05-05 02:15 | 45.78914 | -120.08875 | 32891 ft | 477 kts | 111° |
| 2026-05-05 02:15 | 45.75772 | -120.00404 | 32880 ft | 478 kts | 111° |
| 2026-05-05 02:16 | 45.72644 | -119.91963 | 32872 ft | 476 kts | 111° |
| 2026-05-05 02:16 | 45.69511 | -119.83505 | 32877 ft | 478 kts | 111° |
| 2026-05-05 02:17 | 45.66459 | -119.75285 | 32887 ft | 476 kts | 111° |
| 2026-05-05 02:17 | 45.63121 | -119.66949 | 32899 ft | 479 kts | 112° |
| 2026-05-05 02:18 | 45.59779 | -119.58648 | 32908 ft | 478 kts | 112° |
| 2026-05-05 02:18 | 45.56432 | -119.50323 | 32926 ft | 478 kts | 112° |
| 2026-05-05 02:19 | 45.53114 | -119.42082 | 32940 ft | 479 kts | 112° |
| 2026-05-05 02:19 | 45.49764 | -119.33766 | 32946 ft | 478 kts | 113° |
| 2026-05-05 02:20 | 45.46449 | -119.25524 | 32963 ft | 479 kts | 113° |
| 2026-05-05 02:20 | 45.43149 | -119.17315 | 32985 ft | 477 kts | 113° |
| 2026-05-05 02:21 | 45.39826 | -119.09068 | 32991 ft | 478 kts | 112° |
| 2026-05-05 02:21 | 45.36482 | -119.00756 | 33009 ft | 479 kts | 112° |
| 2026-05-05 02:22 | 45.33149 | -118.92543 | 33022 ft | 479 kts | 114° |
| 2026-05-05 02:22 | 45.29756 | -118.84379 | 33028 ft | 479 kts | 113° |
| 2026-05-05 02:23 | 45.26360 | -118.76185 | 33037 ft | 479 kts | 113° |
| 2026-05-05 02:23 | 45.22981 | -118.68030 | 33047 ft | 479 kts | 113° |
| 2026-05-05 02:24 | 45.19590 | -118.59809 | 33042 ft | 479 kts | 113° |
| 2026-05-05 02:24 | 45.16220 | -118.51642 | 33049 ft | 479 kts | 113° |
| 2026-05-05 02:25 | 45.12858 | -118.43448 | 33058 ft | 478 kts | 113° |
| 2026-05-05 02:25 | 45.09487 | -118.35220 | 33068 ft | 477 kts | 113° |
| 2026-05-05 02:26 | 45.06163 | -118.27061 | 33086 ft | 478 kts | 114° |
| 2026-05-05 02:26 | 45.02816 | -118.18822 | 33084 ft | 479 kts | 113° |
| 2026-05-05 02:27 | 44.99494 | -118.10608 | 33063 ft | 478 kts | 113° |
| 2026-05-05 02:27 | 44.96656 | -118.02159 | 33045 ft | 468 kts | 102° |
| 2026-05-05 02:28 | 44.94740 | -117.93301 | 33023 ft | 468 kts | 100° |
| 2026-05-05 02:28 | 44.92900 | -117.84549 | 33023 ft | 466 kts | 99° |
| 2026-05-05 02:29 | 44.91261 | -117.75686 | 33028 ft | 466 kts | 98° |
| 2026-05-05 02:29 | 44.89640 | -117.66780 | 33011 ft | 465 kts | 98° |
| 2026-05-05 02:30 | 44.88159 | -117.57870 | 33021 ft | 463 kts | 95° |
| 2026-05-05 02:30 | 44.86904 | -117.48951 | 33008 ft | 464 kts | 95° |
| 2026-05-05 02:31 | 44.85664 | -117.40048 | 33002 ft | 466 kts | 95° |
| 2026-05-05 02:31 | 44.84412 | -117.31060 | 33015 ft | 466 kts | 95° |
| 2026-05-05 02:32 | 44.83168 | -117.22066 | 33000 ft | 465 kts | 95° |
| 2026-05-05 02:32 | 44.81953 | -117.13224 | 32973 ft | 467 kts | 95° |
| 2026-05-05 02:33 | 44.80725 | -117.04208 | 32966 ft | 468 kts | 95° |
| 2026-05-05 02:33 | 44.79509 | -116.95228 | 32975 ft | 466 kts | 95° |
| 2026-05-05 02:34 | 44.78295 | -116.86188 | 33001 ft | 467 kts | 95° |
| 2026-05-05 02:34 | 44.77081 | -116.77167 | 33019 ft | 468 kts | 95° |
| 2026-05-05 02:35 | 44.75877 | -116.68094 | 33027 ft | 468 kts | 95° |
| 2026-05-05 02:35 | 44.73951 | -116.59306 | 33013 ft | 477 kts | 108° |
| 2026-05-05 02:36 | 44.70667 | -116.51015 | 32995 ft | 487 kts | 120° |
| 2026-05-05 02:36 | 44.66199 | -116.43742 | 32980 ft | 494 kts | 132° |
| 2026-05-05 02:37 | 44.61056 | -116.37209 | 33001 ft | 496 kts | 133° |
| 2026-05-05 02:37 | 44.55879 | -116.30683 | 33020 ft | 495 kts | 134° |
| 2026-05-05 02:38 | 44.50759 | -116.24239 | 33017 ft | 495 kts | 134° |
| 2026-05-05 02:38 | 44.45650 | -116.17803 | 33005 ft | 495 kts | 134° |
| 2026-05-05 02:39 | 44.40846 | -116.11731 | 33016 ft | 495 kts | 134° |
| 2026-05-05 02:39 | 44.35483 | -116.04929 | 33018 ft | 495 kts | 134° |
| 2026-05-05 02:40 | 44.30474 | -115.98576 | 33011 ft | 494 kts | 134° |
| 2026-05-05 02:40 | 44.25351 | -115.92081 | 33032 ft | 493 kts | 133° |
| 2026-05-05 02:41 | 44.20259 | -115.85613 | 33047 ft | 493 kts | 133° |
| 2026-05-05 02:41 | 44.15176 | -115.79131 | 33062 ft | 492 kts | 133° |
| 2026-05-05 02:42 | 44.10060 | -115.72607 | 33071 ft | 493 kts | 133° |
| 2026-05-05 02:42 | 44.05040 | -115.66196 | 33063 ft | 493 kts | 133° |
| 2026-05-05 02:43 | 43.99956 | -115.59683 | 33061 ft | 491 kts | 133° |
| 2026-05-05 02:43 | 43.94894 | -115.53215 | 33059 ft | 491 kts | 133° |
| 2026-05-05 02:44 | 43.89820 | -115.46725 | 33058 ft | 491 kts | 133° |
| 2026-05-05 02:44 | 43.84773 | -115.40281 | 33051 ft | 489 kts | 133° |
| 2026-05-05 02:45 | 43.79724 | -115.33826 | 33049 ft | 489 kts | 134° |
| 2026-05-05 02:45 | 43.74724 | -115.27424 | 33077 ft | 490 kts | 134° |
| 2026-05-05 02:46 | 43.69680 | -115.20968 | 33080 ft | 489 kts | 133° |
| 2026-05-05 02:46 | 43.64636 | -115.14538 | 33062 ft | 489 kts | 133° |
| 2026-05-05 02:47 | 43.59765 | -115.08337 | 33074 ft | 489 kts | 133° |
| 2026-05-05 02:47 | 43.54810 | -115.02000 | 33070 ft | 487 kts | 133° |
| 2026-05-05 02:48 | 43.49775 | -114.95572 | 33071 ft | 487 kts | 133° |
| 2026-05-05 02:48 | 43.44765 | -114.89190 | 33059 ft | 487 kts | 133° |
| 2026-05-05 02:49 | 43.39763 | -114.82816 | 33042 ft | 487 kts | 133° |
| 2026-05-05 02:49 | 43.34774 | -114.76463 | 33031 ft | 486 kts | 133° |
| 2026-05-05 02:50 | 43.29754 | -114.70070 | 33003 ft | 486 kts | 133° |
| 2026-05-05 02:50 | 43.24854 | -114.63801 | 32997 ft | 485 kts | 133° |
| 2026-05-05 02:51 | 43.19924 | -114.57491 | 32975 ft | 484 kts | 133° |
| 2026-05-05 02:51 | 43.14964 | -114.51154 | 32971 ft | 484 kts | 133° |
| 2026-05-05 02:52 | 43.09975 | -114.44865 | 32954 ft | 483 kts | 133° |
| 2026-05-05 02:52 | 43.04864 | -114.38699 | 32939 ft | 486 kts | 135° |
| 2026-05-05 02:53 | 42.99742 | -114.32774 | 32928 ft | 483 kts | 136° |
| 2026-05-05 02:53 | 42.94555 | -114.26753 | 32931 ft | 483 kts | 136° |
| 2026-05-05 02:54 | 42.89399 | -114.20742 | 32937 ft | 482 kts | 136° |
| 2026-05-05 02:54 | 42.84232 | -114.14713 | 32929 ft | 483 kts | 136° |
| 2026-05-05 02:55 | 42.79121 | -114.08727 | 32941 ft | 481 kts | 135° |
| 2026-05-05 02:55 | 42.74030 | -114.02754 | 32947 ft | 479 kts | 136° |
| 2026-05-05 02:56 | 42.68977 | -113.96650 | 32942 ft | 477 kts | 131° |
| 2026-05-05 02:56 | 42.64364 | -113.90222 | 32939 ft | 475 kts | 126° |
| 2026-05-05 02:57 | 42.60625 | -113.82658 | 32936 ft | 470 kts | 115° |
| 2026-05-05 02:57 | 42.57614 | -113.74689 | 32922 ft | 470 kts | 113° |
| 2026-05-05 02:58 | 42.54625 | -113.66676 | 32926 ft | 470 kts | 113° |
| 2026-05-05 02:58 | 42.51706 | -113.58779 | 32939 ft | 471 kts | 113° |
| 2026-05-05 02:59 | 42.48739 | -113.50713 | 32956 ft | 472 kts | 113° |
| 2026-05-05 02:59 | 42.45822 | -113.42721 | 32973 ft | 472 kts | 113° |
| 2026-05-05 03:00 | 42.42875 | -113.34631 | 32972 ft | 473 kts | 114° |
| 2026-05-05 03:00 | 42.39960 | -113.26543 | 32969 ft | 473 kts | 114° |
| 2026-05-05 03:01 | 42.37078 | -113.18434 | 32977 ft | 474 kts | 114° |
| 2026-05-05 03:01 | 42.34200 | -113.10335 | 32988 ft | 475 kts | 113° |
| 2026-05-05 03:02 | 42.31356 | -113.02219 | 33003 ft | 476 kts | 113° |
| 2026-05-05 03:02 | 42.28531 | -112.94111 | 33014 ft | 475 kts | 113° |
| 2026-05-05 03:03 | 42.25687 | -112.85895 | 33010 ft | 475 kts | 113° |
| 2026-05-05 03:03 | 42.22933 | -112.78140 | 33003 ft | 477 kts | 114° |
| 2026-05-05 03:04 | 42.19998 | -112.69979 | 32999 ft | 477 kts | 114° |
| 2026-05-05 03:04 | 42.17072 | -112.61829 | 32997 ft | 477 kts | 114° |
| 2026-05-05 03:05 | 42.14173 | -112.53612 | 33017 ft | 477 kts | 114° |
| 2026-05-05 03:05 | 42.11308 | -112.45506 | 33013 ft | 479 kts | 114° |
| 2026-05-05 03:06 | 42.08415 | -112.37262 | 32997 ft | 479 kts | 114° |
| 2026-05-05 03:06 | 42.05576 | -112.29111 | 32978 ft | 478 kts | 114° |
| 2026-05-05 03:07 | 42.02742 | -112.20898 | 32981 ft | 479 kts | 114° |
| 2026-05-05 03:07 | 41.99922 | -112.12666 | 32963 ft | 480 kts | 114° |
| 2026-05-05 03:08 | 41.97185 | -112.04318 | 32986 ft | 479 kts | 107° |
| 2026-05-05 03:08 | 41.95813 | -111.95554 | 33013 ft | 481 kts | 99° |
| 2026-05-05 03:09 | 41.94682 | -111.86625 | 32978 ft | 480 kts | 99° |
| 2026-05-05 03:09 | 41.93563 | -111.77696 | 32972 ft | 482 kts | 98° |
| 2026-05-05 03:10 | 41.92444 | -111.68686 | 33010 ft | 485 kts | 98° |
| 2026-05-05 03:10 | 41.91172 | -111.59769 | 33045 ft | 486 kts | 102° |
| 2026-05-05 03:11 | 41.89659 | -111.50803 | 33095 ft | 489 kts | 101° |
| 2026-05-05 03:11 | 41.88234 | -111.41852 | 33088 ft | 489 kts | 101° |
| 2026-05-05 03:12 | 41.86806 | -111.32776 | 33059 ft | 488 kts | 102° |
| 2026-05-05 03:12 | 41.85452 | -111.23984 | 33056 ft | 493 kts | 102° |
| 2026-05-05 03:13 | 41.84050 | -111.14847 | 33046 ft | 492 kts | 101° |
| 2026-05-05 03:13 | 41.82683 | -111.05840 | 33055 ft | 493 kts | 101° |
| 2026-05-05 03:14 | 41.81330 | -110.96762 | 33064 ft | 495 kts | 101° |
| 2026-05-05 03:14 | 41.79980 | -110.87610 | 33059 ft | 495 kts | 101° |
| 2026-05-05 03:15 | 41.78645 | -110.78503 | 33068 ft | 496 kts | 101° |
| 2026-05-05 03:15 | 41.77314 | -110.69339 | 33055 ft | 497 kts | 101° |
| 2026-05-05 03:16 | 41.75999 | -110.60211 | 33059 ft | 499 kts | 101° |
| 2026-05-05 03:16 | 41.74683 | -110.51003 | 33048 ft | 499 kts | 101° |
| 2026-05-05 03:17 | 41.73363 | -110.41761 | 33067 ft | 501 kts | 101° |
| 2026-05-05 03:17 | 41.71981 | -110.32507 | 33024 ft | 500 kts | 105° |
| 2026-05-05 03:18 | 41.70233 | -110.23382 | 33066 ft | 503 kts | 104° |
| 2026-05-05 03:18 | 41.68746 | -110.14243 | 33073 ft | 503 kts | 103° |
| 2026-05-05 03:19 | 41.66494 | -110.00429 | 33053 ft | 503 kts | 103° |
| 2026-05-05 03:19 | 41.64990 | -109.91193 | 33035 ft | 505 kts | 103° |
| 2026-05-05 03:20 | 41.63488 | -109.81827 | 33073 ft | 508 kts | 103° |
| 2026-05-05 03:20 | 41.62005 | -109.72601 | 33044 ft | 507 kts | 102° |
| 2026-05-05 03:21 | 41.60523 | -109.63251 | 33087 ft | 513 kts | 103° |
| 2026-05-05 03:21 | 41.59052 | -109.53944 | 33047 ft | 510 kts | 102° |
| 2026-05-05 03:22 | 41.57578 | -109.44563 | 33063 ft | 512 kts | 102° |
| 2026-05-05 03:22 | 41.56105 | -109.35155 | 33066 ft | 514 kts | 102° |
| 2026-05-05 03:23 | 41.54676 | -109.25900 | 33049 ft | 514 kts | 102° |
| 2026-05-05 03:23 | 41.52955 | -109.16569 | 33022 ft | 516 kts | 105° |
| 2026-05-05 03:24 | 41.51184 | -109.07267 | 33033 ft | 515 kts | 105° |
| 2026-05-05 03:24 | 41.49414 | -108.97950 | 33038 ft | 517 kts | 105° |
| 2026-05-05 03:25 | 41.47665 | -108.88598 | 33038 ft | 518 kts | 105° |
| 2026-05-05 03:25 | 41.45900 | -108.79179 | 33077 ft | 519 kts | 105° |
| 2026-05-05 03:26 | 41.44140 | -108.69785 | 33076 ft | 521 kts | 105° |
| 2026-05-05 03:26 | 41.42387 | -108.60416 | 33075 ft | 520 kts | 105° |
| 2026-05-05 03:27 | 41.40640 | -108.50946 | 33085 ft | 522 kts | 105° |
| 2026-05-05 03:27 | 41.38831 | -108.41567 | 33076 ft | 523 kts | 106° |
| 2026-05-05 03:28 | 41.36852 | -108.32229 | 33043 ft | 523 kts | 108° |
| 2026-05-05 03:28 | 41.34729 | -108.22902 | 33032 ft | 525 kts | 109° |
| 2026-05-05 03:29 | 41.32542 | -108.13557 | 33042 ft | 527 kts | 109° |
| 2026-05-05 03:29 | 41.30345 | -108.04262 | 32996 ft | 523 kts | 110° |
| 2026-05-05 03:30 | 41.28072 | -107.94945 | 33052 ft | 528 kts | 110° |
| 2026-05-05 03:30 | 41.25803 | -107.85664 | 33056 ft | 528 kts | 110° |
| 2026-05-05 03:31 | 41.23513 | -107.76299 | 33048 ft | 528 kts | 110° |
| 2026-05-05 03:31 | 41.21246 | -107.66977 | 33045 ft | 528 kts | 110° |
| 2026-05-05 03:32 | 41.18936 | -107.57642 | 33095 ft | 531 kts | 109° |
| 2026-05-05 03:32 | 41.16681 | -107.48288 | 33078 ft | 531 kts | 109° |
| 2026-05-05 03:33 | 41.14341 | -107.38887 | 33086 ft | 534 kts | 111° |
| 2026-05-05 03:33 | 41.11889 | -107.29638 | 32991 ft | 526 kts | 112° |
| 2026-05-05 03:34 | 41.10685 | -107.25137 | 32832 ft | 518 kts | 111° |
| 2026-05-05 03:34 | 41.09492 | -107.20624 | 32670 ft | 513 kts | 111° |
| 2026-05-05 03:34 | 41.08280 | -107.16099 | 32511 ft | 512 kts | 111° |
| 2026-05-05 03:34 | 41.07092 | -107.11628 | 32262 ft | 510 kts | 111° |
| 2026-05-05 03:35 | 41.05902 | -107.07201 | 31966 ft | 507 kts | 111° |
| 2026-05-05 03:35 | 41.04696 | -107.02792 | 31662 ft | 501 kts | 111° |
| 2026-05-05 03:35 | 41.03501 | -106.98441 | 31368 ft | 495 kts | 111° |
| 2026-05-05 03:35 | 41.02309 | -106.94112 | 31071 ft | 492 kts | 111° |
| 2026-05-05 03:36 | 41.01137 | -106.89883 | 30793 ft | 487 kts | 111° |
| 2026-05-05 03:36 | 40.99955 | -106.85700 | 30518 ft | 483 kts | 111° |
| 2026-05-05 03:36 | 40.98774 | -106.81538 | 30200 ft | 478 kts | 111° |
| 2026-05-05 03:36 | 40.97594 | -106.77408 | 29854 ft | 472 kts | 111° |
| 2026-05-05 03:37 | 40.96423 | -106.73328 | 29503 ft | 470 kts | 111° |
| 2026-05-05 03:37 | 40.95269 | -106.69274 | 29126 ft | 469 kts | 111° |
| 2026-05-05 03:37 | 40.94117 | -106.65243 | 28798 ft | 464 kts | 111° |
| 2026-05-05 03:37 | 40.92982 | -106.61231 | 28397 ft | 451 kts | 111° |
| 2026-05-05 03:38 | 40.91881 | -106.57372 | 28034 ft | 440 kts | 111° |
| 2026-05-05 03:38 | 40.90821 | -106.53631 | 27683 ft | 428 kts | 111° |
| 2026-05-05 03:38 | 40.89765 | -106.49956 | 27313 ft | 418 kts | 111° |
| 2026-05-05 03:38 | 40.88752 | -106.46389 | 26946 ft | 408 kts | 111° |
| 2026-05-05 03:39 | 40.87712 | -106.42733 | 26628 ft | 402 kts | 111° |
| 2026-05-05 03:39 | 40.86758 | -106.39388 | 26330 ft | 401 kts | 110° |
| 2026-05-05 03:39 | 40.85753 | -106.35869 | 26032 ft | 403 kts | 111° |
| 2026-05-05 03:39 | 40.84770 | -106.32397 | 25735 ft | 400 kts | 111° |
| 2026-05-05 03:40 | 40.83786 | -106.28945 | 25417 ft | 397 kts | 111° |
| 2026-05-05 03:40 | 40.82813 | -106.25510 | 25110 ft | 392 kts | 112° |
| 2026-05-05 03:40 | 40.81813 | -106.22131 | 24798 ft | 392 kts | 112° |
| 2026-05-05 03:40 | 40.80818 | -106.18772 | 24492 ft | 389 kts | 112° |
| 2026-05-05 03:41 | 40.79817 | -106.15428 | 24172 ft | 387 kts | 112° |
| 2026-05-05 03:41 | 40.78831 | -106.12116 | 23875 ft | 386 kts | 112° |
| 2026-05-05 03:41 | 40.77840 | -106.08798 | 23567 ft | 385 kts | 112° |
| 2026-05-05 03:41 | 40.76852 | -106.05497 | 23270 ft | 381 kts | 112° |
| 2026-05-05 03:42 | 40.75878 | -106.02239 | 22976 ft | 380 kts | 112° |
| 2026-05-05 03:42 | 40.74898 | -105.98954 | 22681 ft | 378 kts | 112° |
| 2026-05-05 03:42 | 40.73938 | -105.95737 | 22389 ft | 376 kts | 112° |
| 2026-05-05 03:42 | 40.72974 | -105.92506 | 22097 ft | 374 kts | 113° |
| 2026-05-05 03:43 | 40.71957 | -105.89363 | 21813 ft | 372 kts | 114° |
| 2026-05-05 03:43 | 40.70934 | -105.86206 | 21524 ft | 371 kts | 114° |
| 2026-05-05 03:43 | 40.69913 | -105.83040 | 21233 ft | 371 kts | 114° |
| 2026-05-05 03:43 | 40.68905 | -105.79933 | 20989 ft | 368 kts | 114° |
| 2026-05-05 03:44 | 40.67889 | -105.76818 | 20734 ft | 365 kts | 114° |
| 2026-05-05 03:44 | 40.66886 | -105.73749 | 20486 ft | 365 kts | 114° |
| 2026-05-05 03:44 | 40.65876 | -105.70652 | 20237 ft | 363 kts | 114° |
| 2026-05-05 03:44 | 40.64848 | -105.67612 | 19988 ft | 361 kts | 114° |
| 2026-05-05 03:45 | 40.63800 | -105.64552 | 19731 ft | 362 kts | 115° |
| 2026-05-05 03:45 | 40.62772 | -105.61533 | 19503 ft | 359 kts | 114° |
| 2026-05-05 03:45 | 40.61747 | -105.58538 | 19276 ft | 358 kts | 114° |
| 2026-05-05 03:45 | 40.60720 | -105.55544 | 19049 ft | 358 kts | 114° |
| 2026-05-05 03:46 | 40.59699 | -105.52561 | 18823 ft | 356 kts | 114° |
| 2026-05-05 03:46 | 40.58680 | -105.49587 | 18602 ft | 356 kts | 114° |
| 2026-05-05 03:46 | 40.57649 | -105.46592 | 18371 ft | 355 kts | 114° |
| 2026-05-05 03:46 | 40.56619 | -105.43659 | 18144 ft | 353 kts | 115° |
| 2026-05-05 03:47 | 40.55562 | -105.40717 | 17914 ft | 350 kts | 115° |
| 2026-05-05 03:47 | 40.54533 | -105.37859 | 17679 ft | 341 kts | 115° |
| 2026-05-05 03:47 | 40.53510 | -105.35032 | 17460 ft | 345 kts | 115° |
| 2026-05-05 03:47 | 40.52454 | -105.32114 | 17224 ft | 347 kts | 116° |
| 2026-05-05 03:48 | 40.51418 | -105.29251 | 17037 ft | 344 kts | 116° |
| 2026-05-05 03:48 | 40.50295 | -105.26469 | 17021 ft | 343 kts | 123° |
| 2026-05-05 03:48 | 40.48892 | -105.23903 | 17017 ft | 343 kts | 132° |
| 2026-05-05 03:48 | 40.47250 | -105.21661 | 17020 ft | 343 kts | 140° |
| 2026-05-05 03:49 | 40.45435 | -105.19599 | 17011 ft | 343 kts | 143° |
| 2026-05-05 03:49 | 40.43586 | -105.17622 | 17012 ft | 342 kts | 143° |
| 2026-05-05 03:49 | 40.41727 | -105.15640 | 17000 ft | 343 kts | 143° |
| 2026-05-05 03:49 | 40.39870 | -105.13657 | 16981 ft | 344 kts | 143° |
| 2026-05-05 03:50 | 40.37970 | -105.11622 | 16987 ft | 344 kts | 142° |
| 2026-05-05 03:50 | 40.36103 | -105.09694 | 16979 ft | 344 kts | 143° |
| 2026-05-05 03:50 | 40.34200 | -105.07732 | 16975 ft | 344 kts | 143° |
| 2026-05-05 03:50 | 40.32324 | -105.05798 | 16950 ft | 344 kts | 143° |
| 2026-05-05 03:51 | 40.30410 | -105.03840 | 16964 ft | 342 kts | 143° |
| 2026-05-05 03:51 | 40.28540 | -105.01910 | 16984 ft | 344 kts | 143° |
| 2026-05-05 03:51 | 40.26635 | -104.99960 | 16961 ft | 342 kts | 143° |
| 2026-05-05 03:51 | 40.24730 | -104.98013 | 16955 ft | 342 kts | 143° |
| 2026-05-05 03:52 | 40.22851 | -104.96077 | 16976 ft | 344 kts | 143° |
| 2026-05-05 03:52 | 40.20966 | -104.94138 | 16973 ft | 344 kts | 143° |
| 2026-05-05 03:52 | 40.19059 | -104.92173 | 16968 ft | 344 kts | 143° |
| 2026-05-05 03:52 | 40.17168 | -104.90228 | 16972 ft | 343 kts | 143° |
| 2026-05-05 03:53 | 40.15276 | -104.88282 | 16977 ft | 341 kts | 143° |
| 2026-05-05 03:53 | 40.13450 | -104.86402 | 16966 ft | 330 kts | 143° |
| 2026-05-05 03:53 | 40.11641 | -104.84537 | 16979 ft | 328 kts | 143° |
| 2026-05-05 03:53 | 40.09816 | -104.82658 | 16987 ft | 330 kts | 143° |
| 2026-05-05 03:54 | 40.08010 | -104.80796 | 16994 ft | 331 kts | 143° |
| 2026-05-05 03:54 | 40.06180 | -104.78923 | 16977 ft | 331 kts | 143° |
| 2026-05-05 03:54 | 40.04362 | -104.77053 | 16979 ft | 331 kts | 143° |
| 2026-05-05 03:54 | 40.02556 | -104.75198 | 16982 ft | 331 kts | 143° |
| 2026-05-05 03:55 | 40.00707 | -104.73287 | 16990 ft | 331 kts | 143° |
| 2026-05-05 03:55 | 39.98908 | -104.71432 | 16979 ft | 330 kts | 143° |
| 2026-05-05 03:55 | 39.97090 | -104.69559 | 16981 ft | 328 kts | 143° |
| 2026-05-05 03:55 | 39.95385 | -104.67804 | 16969 ft | 318 kts | 143° |
| 2026-05-05 03:56 | 39.93641 | -104.65996 | 16985 ft | 317 kts | 143° |
| 2026-05-05 03:56 | 39.91899 | -104.64185 | 16991 ft | 319 kts | 143° |
| 2026-05-05 03:56 | 39.90135 | -104.62405 | 16980 ft | 317 kts | 150° |
| 2026-05-05 03:56 | 39.88123 | -104.61279 | 16991 ft | 307 kts | 171° |
| 2026-05-05 03:57 | 39.86014 | -104.60983 | 16898 ft | 302 kts | 177° |
| 2026-05-05 03:57 | 39.83890 | -104.60510 | 16730 ft | 305 kts | 174° |
| 2026-05-05 03:57 | 39.81803 | -104.60032 | 16497 ft | 300 kts | 173° |
| 2026-05-05 03:57 | 39.79747 | -104.59557 | 16236 ft | 293 kts | 173° |
| 2026-05-05 03:58 | 39.77733 | -104.59082 | 15973 ft | 286 kts | 173° |
| 2026-05-05 03:58 | 39.75787 | -104.58661 | 15721 ft | 280 kts | 174° |
| 2026-05-05 03:58 | 39.73879 | -104.58257 | 15464 ft | 273 kts | 176° |
| 2026-05-05 03:58 | 39.71992 | -104.57935 | 15215 ft | 270 kts | 176° |
| 2026-05-05 03:59 | 39.70105 | -104.57649 | 14974 ft | 270 kts | 178° |
| 2026-05-05 03:59 | 39.68222 | -104.57413 | 14736 ft | 271 kts | 178° |
| 2026-05-05 03:59 | 39.66351 | -104.57200 | 14494 ft | 268 kts | 178° |
| 2026-05-05 03:59 | 39.64481 | -104.56985 | 14227 ft | 267 kts | 178° |
| 2026-05-05 04:00 | 39.62623 | -104.56777 | 13963 ft | 265 kts | 178° |
| 2026-05-05 04:00 | 39.60781 | -104.56618 | 13702 ft | 263 kts | 180° |
| 2026-05-05 04:00 | 39.58945 | -104.56498 | 13439 ft | 262 kts | 180° |
| 2026-05-05 04:00 | 39.57105 | -104.56387 | 13174 ft | 262 kts | 179° |
| 2026-05-05 04:01 | 39.55272 | -104.56276 | 12910 ft | 260 kts | 179° |
| 2026-05-05 04:01 | 39.53474 | -104.56182 | 12637 ft | 256 kts | 180° |
| 2026-05-05 04:01 | 39.51703 | -104.56089 | 12368 ft | 252 kts | 180° |
| 2026-05-05 04:01 | 39.49945 | -104.56007 | 12102 ft | 253 kts | 180° |
| 2026-05-05 04:02 | 39.48156 | -104.55959 | 11836 ft | 253 kts | 181° |
| 2026-05-05 04:02 | 39.46495 | -104.56466 | 11583 ft | 248 kts | 218° |
| 2026-05-05 04:02 | 39.45451 | -104.58160 | 11402 ft | 243 kts | 256° |
| 2026-05-05 04:02 | 39.45451 | -104.60310 | 11231 ft | 240 kts | 293° |
| 2026-05-05 04:03 | 39.46492 | -104.61976 | 11034 ft | 241 kts | 330° |
| 2026-05-05 04:03 | 39.48119 | -104.62560 | 10840 ft | 243 kts | 352° |
| 2026-05-05 04:03 | 39.49809 | -104.62787 | 10569 ft | 247 kts | 353° |
| 2026-05-05 04:03 | 39.51558 | -104.63010 | 10338 ft | 256 kts | 353° |
| 2026-05-05 04:04 | 39.53326 | -104.63242 | 10058 ft | 252 kts | 352° |
| 2026-05-05 04:04 | 39.55079 | -104.63475 | 9769 ft | 249 kts | 353° |
| 2026-05-05 04:04 | 39.56791 | -104.63585 | 9510 ft | 244 kts | 358° |
| 2026-05-05 04:04 | 39.58534 | -104.63623 | 9290 ft | 248 kts | 358° |
| 2026-05-05 04:05 | 39.60282 | -104.63664 | 9075 ft | 248 kts | 358° |
| 2026-05-05 04:05 | 39.62003 | -104.63702 | 8809 ft | 244 kts | 358° |
| 2026-05-05 04:05 | 39.63699 | -104.63745 | 8580 ft | 248 kts | 356° |
| 2026-05-05 04:05 | 39.65408 | -104.63856 | 8568 ft | 238 kts | 356° |
| 2026-05-05 04:06 | 39.67106 | -104.63956 | 8190 ft | 247 kts | 356° |
| 2026-05-05 04:06 | 39.68812 | -104.64087 | 8036 ft | 241 kts | 355° |
| 2026-05-05 04:06 | 39.70456 | -104.64217 | 7785 ft | 231 kts | 356° |
| 2026-05-05 04:06 | 39.72025 | -104.64298 | 7552 ft | 219 kts | 357° |
| 2026-05-05 04:07 | 39.73554 | -104.64311 | 7329 ft | 213 kts | 359° |
| 2026-05-05 04:07 | 39.75021 | -104.64294 | 7022 ft | 208 kts | 0° |
| 2026-05-05 04:07 | 39.76413 | -104.64247 | 6819 ft | 188 kts | 0° |
| 2026-05-05 04:07 | 39.77713 | -104.64227 | 6576 ft | 184 kts | 359° |
| 2026-05-05 04:08 | 39.78986 | -104.64231 | 6282 ft | 179 kts | 0° |
| 2026-05-05 04:08 | 39.80177 | -104.64221 | 6071 ft | 161 kts | 360° |
| 2026-05-05 04:08 | 39.81208 | -104.64213 | 5802 ft | 147 kts | 0° |
| 2026-05-05 04:08 | 39.82249 | -104.64192 | 5584 ft | 146 kts | 0° |
| 2026-05-05 04:09 | 39.83279 | -104.64172 | 5403 ft | 147 kts | 1° |
| 2026-05-05 04:09 | 39.84280 | -104.64161 | 5345 ft | 132 kts | 0° |
| 2026-05-05 04:09 | 39.85022 | -104.64162 | 5339 ft | 69 kts | 350° |
| 2026-05-05 04:09 | 39.85294 | -104.64288 | 5339 ft | 27 kts | 330° |
| 2026-05-05 04:10 | 39.85467 | -104.64358 | 5336 ft | 25 kts | 359° |
| 2026-05-05 04:10 | 39.85643 | -104.64352 | 5331 ft | 24 kts | 360° |
| 2026-05-05 04:10 | 39.85807 | -104.64381 | 5332 ft | 21 kts | 337° |
| 2026-05-05 04:10 | 39.85928 | -104.64466 | 5335 ft | 20 kts | 329° |
| 2026-05-05 04:11 | 39.86043 | -104.64552 | 5338 ft | 16 kts | 330° |
| 2026-05-05 04:11 | 39.86154 | -104.64632 | 5341 ft | 17 kts | 330° |
| 2026-05-05 04:11 | 39.86267 | -104.64712 | 5347 ft | 17 kts | 331° |
| 2026-05-05 04:11 | 39.86383 | -104.64798 | 5354 ft | 22 kts | 329° |
| 2026-05-05 04:12 | 39.86483 | -104.64923 | 5361 ft | 18 kts | 285° |
| 2026-05-05 04:12 | 39.86492 | -104.65080 | 5369 ft | 15 kts | 270° |
| 2026-05-05 04:12 | 39.86493 | -104.65247 | 5377 ft | 25 kts | 271° |
| 2026-05-05 04:12 | 39.86495 | -104.65529 | 5388 ft | 34 kts | 270° |
| 2026-05-05 04:13 | 39.86498 | -104.65861 | 5400 ft | 35 kts | 270° |
| 2026-05-05 04:13 | 39.86500 | -104.66164 | 5409 ft | 31 kts | 269° |
| 2026-05-05 04:13 | 39.86425 | -104.66342 | 5412 ft | 23 kts | 178° |
| 2026-05-05 04:13 | 39.86274 | -104.66342 | 5418 ft | 18 kts | 183° |
| 2026-05-05 04:14 | 39.86160 | -104.66346 | 5422 ft | 14 kts | 180° |
| 2026-05-05 04:14 | 39.86053 | -104.66352 | 5424 ft | 15 kts | 202° |
| 2026-05-05 04:14 | 39.86017 | -104.66473 | 5425 ft | 15 kts | 270° |
| 2026-05-05 04:14 | 39.86057 | -104.66602 | 5423 ft | 16 kts | 278° |
| 2026-05-05 04:15 | 39.86014 | -104.66709 | 5424 ft | 13 kts | 188° |
| 2026-05-05 04:15 | 39.85959 | -104.66712 | 5424 ft | 0 kts | 180° |
| 2026-05-05 04:15 | 39.85949 | -104.66712 | 5424 ft | 0 kts | 180° |